createdAt,value
2022-09-10T00:01:52.184Z,4.27
2022-09-10T00:04:19.244Z,6.33
2022-09-10T00:06:45.864Z,1.60
2022-09-10T00:09:13.418Z,2.33
2022-09-10T00:11:41.610Z,2.10
2022-09-10T00:14:12.258Z,4.27
2022-09-10T00:16:38.819Z,2.90
2022-09-10T00:19:06.530Z,2.57
2022-09-10T00:21:33.524Z,6.70
2022-09-10T00:24:02.069Z,4.23
2022-09-10T00:26:34.435Z,1.50
2022-09-10T00:29:01.411Z,3.07
2022-09-10T00:31:30.337Z,1.93
2022-09-10T00:33:59.078Z,1.87
2022-09-10T00:36:28.404Z,2.57
2022-09-10T00:38:58.145Z,4.07
2022-09-10T00:41:25.833Z,3.67
2022-09-10T00:43:55.550Z,2.67
2022-09-10T00:46:43.960Z,1.40
2022-09-10T00:49:23.366Z,4.50
2022-09-10T00:51:52.485Z,3.33
2022-09-10T00:54:21.877Z,4.73
2022-09-10T00:56:49.790Z,4.13
2022-09-10T00:59:20.215Z,2.37
2022-09-10T01:01:48.197Z,3.80
2022-09-10T01:04:15.665Z,3.80
2022-09-10T01:06:45.409Z,3.13
2022-09-10T01:09:15.985Z,4.70
2022-09-10T01:11:56.181Z,3.00
2022-09-10T01:14:51.600Z,3.00
2022-09-10T01:17:36.647Z,4.47
2022-09-10T01:20:34.964Z,2.47
2022-09-10T01:23:18.044Z,4.47
2022-09-10T01:26:03.361Z,2.93
2022-09-10T01:28:54.315Z,5.43
2022-09-10T01:31:27.819Z,5.30
2022-09-10T01:34:02.151Z,5.60
2022-09-10T01:36:33.745Z,5.40
2022-09-10T01:39:02.011Z,5.63
2022-09-10T01:41:28.638Z,6.57
2022-09-10T01:43:55.961Z,4.07
2022-09-10T01:46:51.653Z,4.53
2022-09-10T01:49:38.222Z,4.30
2022-09-10T01:52:35.465Z,3.23
2022-09-10T01:55:13.722Z,6.83
2022-09-10T01:58:12.870Z,4.67
2022-09-10T02:00:43.956Z,3.90
2022-09-10T02:03:16.030Z,4.00
2022-09-10T02:05:44.986Z,6.43
2022-09-10T02:08:16.648Z,2.60
2022-09-10T02:11:01.507Z,3.10
2022-09-10T02:13:45.041Z,5.53
2022-09-10T02:16:18.034Z,5.37
2022-09-10T02:18:44.721Z,8.27
2022-09-10T02:21:12.391Z,2.60
2022-09-10T02:23:48.849Z,4.30
2022-09-10T02:26:15.865Z,3.93
2022-09-10T02:28:43.734Z,3.60
2022-09-10T02:31:10.883Z,4.43
2022-09-10T02:33:38.210Z,3.97
2022-09-10T02:36:04.939Z,2.73
2022-09-10T02:38:31.927Z,4.37
2022-09-10T02:40:59.298Z,3.20
2022-09-10T02:43:27.211Z,3.67
2022-09-10T02:45:58.172Z,2.93
2022-09-10T02:48:30.978Z,1.87
2022-09-10T02:50:58.034Z,3.97
2022-09-10T02:53:25.966Z,4.50
2022-09-10T02:55:54.293Z,3.70
2022-09-10T02:58:20.875Z,2.57
2022-09-10T03:00:47.891Z,3.90
2022-09-10T03:03:16.148Z,2.70
2022-09-10T03:05:44.001Z,4.17
2022-09-10T03:08:10.965Z,4.40
2022-09-10T03:10:38.416Z,2.43
2022-09-10T03:13:04.980Z,1.97
2022-09-10T03:15:31.931Z,3.33
2022-09-10T03:17:58.882Z,2.63
2022-09-10T03:20:25.880Z,7.20
2022-09-10T03:22:52.850Z,4.10
2022-09-10T03:25:19.801Z,8.17
2022-09-10T03:27:46.767Z,3.60
2022-09-10T03:30:14.092Z,2.57
2022-09-10T03:32:41.088Z,8.10
2022-09-10T03:35:08.281Z,3.80
2022-09-10T03:37:35.281Z,8.33
2022-09-10T03:40:02.338Z,3.47
2022-09-10T03:42:29.334Z,2.10
2022-09-10T03:44:56.597Z,2.77
2022-09-10T03:47:23.904Z,3.07
2022-09-10T03:49:50.714Z,2.37
2022-09-10T03:52:18.056Z,7.40
2022-09-10T03:54:45.472Z,4.00
2022-09-10T03:57:12.450Z,6.23
2022-09-10T03:59:41.082Z,4.47
2022-09-10T04:02:09.285Z,3.47
2022-09-10T04:04:37.299Z,5.30
2022-09-10T04:07:04.504Z,2.30
2022-09-10T04:09:32.400Z,3.67
2022-09-10T04:11:59.531Z,2.73
2022-09-10T04:14:26.929Z,5.53
2022-09-10T04:16:54.156Z,3.20
2022-09-10T04:19:20.875Z,3.93
2022-09-10T04:21:48.317Z,7.03
2022-09-10T04:24:15.303Z,3.90
2022-09-10T04:26:42.369Z,4.30
2022-09-10T04:29:08.865Z,2.47
2022-09-10T04:31:35.551Z,5.17
2022-09-10T04:34:02.560Z,1.87
2022-09-10T04:36:30.166Z,2.93
2022-09-10T04:38:58.075Z,4.40
2022-09-10T04:41:25.070Z,3.13
2022-09-10T04:43:52.060Z,2.93
2022-09-10T04:46:19.072Z,2.10
2022-09-10T04:48:45.702Z,1.83
2022-09-10T04:51:17.416Z,4.53
2022-09-10T04:53:45.167Z,4.93
2022-09-10T04:56:11.746Z,3.40
2022-09-10T04:58:39.290Z,3.40
2022-09-10T05:01:06.889Z,4.70
2022-09-10T05:03:33.768Z,3.73
2022-09-10T05:06:00.285Z,3.40
2022-09-10T05:08:26.849Z,4.23
2022-09-10T05:10:53.379Z,2.83
2022-09-10T05:13:19.884Z,2.07
2022-09-10T05:15:46.903Z,2.63
2022-09-10T05:18:14.071Z,3.23
2022-09-10T05:20:43.599Z,6.13
2022-09-10T05:23:10.146Z,4.87
2022-09-10T05:25:37.554Z,4.20
2022-09-10T05:28:05.605Z,3.00
2022-09-10T05:30:32.593Z,4.27
2022-09-10T05:33:02.018Z,2.17
2022-09-10T05:35:30.203Z,7.13
2022-09-10T05:37:57.464Z,2.50
2022-09-10T05:40:25.242Z,4.97
2022-09-10T05:42:52.267Z,4.20
2022-09-10T05:45:20.203Z,1.43
2022-09-10T05:47:47.266Z,1.90
2022-09-10T05:50:14.505Z,2.70
2022-09-10T05:52:41.519Z,2.30
2022-09-10T05:55:09.134Z,2.17
2022-09-10T05:57:36.113Z,2.77
2022-09-10T06:00:06.842Z,4.13
2022-09-10T06:02:33.872Z,3.83
2022-09-10T06:05:00.685Z,2.47
2022-09-10T06:07:28.631Z,3.13
2022-09-10T06:09:55.651Z,3.13
2022-09-10T06:12:22.637Z,2.20
2022-09-10T06:14:49.669Z,1.90
2022-09-10T06:17:19.780Z,6.63
2022-09-10T06:19:46.989Z,1.90
2022-09-10T06:22:14.436Z,2.30
2022-09-10T06:24:42.008Z,3.70
2022-09-10T06:27:09.508Z,3.93
2022-09-10T06:29:36.621Z,5.67
2022-09-10T06:32:03.668Z,2.00
2022-09-10T06:34:30.209Z,2.13
2022-09-10T06:36:58.217Z,2.47
2022-09-10T06:39:25.171Z,4.30
2022-09-10T06:41:53.571Z,3.53
2022-09-10T06:44:22.057Z,2.93
2022-09-10T06:47:25.822Z,2.30
2022-09-10T06:49:36.436Z,3.33
2022-09-10T06:52:03.255Z,6.60
2022-09-10T06:54:30.262Z,6.30
2022-09-10T06:56:57.879Z,4.57
2022-09-10T06:59:24.907Z,3.17
2022-09-10T07:01:52.050Z,1.97
2022-09-10T07:04:18.716Z,1.60
2022-09-10T07:06:46.538Z,3.30
2022-09-10T07:09:13.577Z,4.77
2022-09-10T07:11:41.811Z,3.90
2022-09-10T07:14:12.855Z,3.13
2022-09-10T07:16:44.512Z,2.67
2022-09-10T07:19:15.302Z,6.17
2022-09-10T07:21:41.860Z,4.17
2022-09-10T07:24:10.654Z,3.00
2022-09-10T07:26:37.217Z,3.40
2022-09-10T07:29:04.365Z,3.37
2022-09-10T07:31:33.880Z,6.47
2022-09-10T07:34:03.856Z,3.93
2022-09-10T07:36:31.411Z,1.67
2022-09-10T07:39:01.342Z,4.70
2022-09-10T07:41:29.820Z,4.13
2022-09-10T07:43:57.289Z,3.07
2022-09-10T07:46:25.109Z,2.30
2022-09-10T07:48:59.584Z,5.43
2022-09-10T07:51:28.544Z,4.90
2022-09-10T07:53:57.052Z,1.90
2022-09-10T07:56:24.319Z,2.80
2022-09-10T07:58:52.285Z,3.47
2022-09-10T08:01:19.651Z,3.10
2022-09-10T08:03:46.746Z,3.03
2022-09-10T08:06:13.600Z,2.63
2022-09-10T08:08:40.558Z,2.77
2022-09-10T08:11:13.581Z,3.20
2022-09-10T08:13:41.711Z,2.30
2022-09-10T08:16:10.696Z,3.10
2022-09-10T08:18:37.619Z,6.60
2022-09-10T08:21:05.642Z,1.97
2022-09-10T08:23:32.633Z,1.90
2022-09-10T08:25:59.331Z,2.90
2022-09-10T08:28:27.193Z,2.23
2022-09-10T08:31:07.576Z,4.30
2022-09-10T08:33:35.195Z,5.07
2022-09-10T08:36:02.973Z,4.47
2022-09-10T08:38:32.284Z,2.57
2022-09-10T08:41:00.419Z,4.07
2022-09-10T08:43:35.111Z,3.17
2022-09-10T08:46:10.233Z,3.40
2022-09-10T08:48:39.650Z,3.47
2022-09-10T08:51:15.824Z,3.60
2022-09-10T08:53:59.297Z,5.47
2022-09-10T08:56:27.749Z,3.93
2022-09-10T08:59:22.237Z,4.70
2022-09-10T09:01:59.222Z,4.00
2022-09-10T09:04:49.645Z,4.30
2022-09-10T09:07:19.830Z,4.50
2022-09-10T09:09:51.446Z,4.03
2022-09-10T09:12:32.184Z,4.50
2022-09-10T09:15:26.217Z,4.83
2022-09-10T09:18:23.649Z,4.80
2022-09-10T09:21:00.189Z,6.57
2022-09-10T09:24:11.614Z,4.27
2022-09-10T09:26:38.023Z,4.77
2022-09-10T09:29:13.444Z,4.83
2022-09-10T09:31:48.942Z,6.27
2022-09-10T09:34:16.969Z,5.27
2022-09-10T09:36:48.570Z,4.37
2022-09-10T09:39:25.718Z,4.57
2022-09-10T09:42:19.531Z,4.80
2022-09-10T09:44:52.768Z,6.07
2022-09-10T09:47:22.635Z,6.27
2022-09-10T09:49:49.657Z,3.90
2022-09-10T09:52:20.846Z,3.77
2022-09-10T09:55:14.258Z,3.77
2022-09-10T09:57:42.598Z,4.60
2022-09-10T10:00:35.950Z,3.70
2022-09-10T10:03:35.367Z,3.50
2022-09-10T10:06:09.820Z,3.93
2022-09-10T10:08:52.113Z,6.07
2022-09-10T10:11:21.699Z,3.80
2022-09-10T10:13:52.943Z,4.53
2022-09-10T10:16:19.914Z,4.03
2022-09-10T10:18:47.189Z,3.87
2022-09-10T10:21:34.391Z,4.70
2022-09-10T10:24:01.577Z,3.63
2022-09-10T10:26:33.522Z,3.97
2022-09-10T10:29:17.295Z,2.97
2022-09-10T10:31:46.825Z,3.40
2022-09-10T10:34:41.149Z,3.80
2022-09-10T10:37:15.955Z,6.00
2022-09-10T10:40:01.003Z,7.37
2022-09-10T10:42:51.868Z,5.20
2022-09-10T10:45:49.087Z,17.87
2022-09-10T10:48:28.295Z,9.47
2022-09-10T10:51:28.525Z,8.80
2022-09-10T10:54:21.379Z,10.03
2022-09-10T10:56:59.855Z,9.67
2022-09-10T10:59:33.398Z,7.83
2022-09-10T11:02:17.722Z,8.33
2022-09-10T11:04:46.609Z,9.77
2022-09-10T11:07:39.330Z,11.23
2022-09-10T11:10:39.326Z,11.07
2022-09-10T11:13:31.832Z,9.27
2022-09-10T11:16:09.577Z,7.70
2022-09-10T11:19:01.503Z,8.87
2022-09-10T11:21:29.705Z,7.93
2022-09-10T11:24:29.956Z,8.27
2022-09-10T11:27:08.937Z,6.93
2022-09-10T11:29:54.772Z,9.27
2022-09-10T11:32:45.852Z,7.00
2022-09-10T11:35:33.435Z,6.83
2022-09-10T11:38:27.476Z,7.70
2022-09-10T11:41:17.138Z,9.40
2022-09-10T11:43:48.582Z,9.83
2022-09-10T11:46:25.261Z,8.43
2022-09-10T11:49:06.168Z,8.07
2022-09-10T11:51:40.974Z,7.77
2022-09-10T11:54:17.114Z,8.80
2022-09-10T11:56:45.171Z,7.67
2022-09-10T11:59:31.564Z,6.97
2022-09-10T12:02:13.833Z,7.10
2022-09-10T12:04:55.473Z,10.33
2022-09-10T12:07:46.906Z,9.97
2022-09-10T12:10:28.031Z,8.10
2022-09-10T12:12:54.986Z,10.17
2022-09-10T12:15:27.242Z,10.57
2022-09-10T12:18:14.286Z,7.40
2022-09-10T12:20:57.921Z,8.57
2022-09-10T12:23:39.722Z,7.67
2022-09-10T12:26:17.869Z,8.63
2022-09-10T12:28:53.550Z,8.80
2022-09-10T12:31:22.049Z,7.53
2022-09-10T12:33:50.994Z,8.33
2022-09-10T12:36:26.660Z,9.10
2022-09-10T12:39:21.038Z,7.60
2022-09-10T12:41:47.521Z,10.23
2022-09-10T12:44:36.078Z,8.50
2022-09-10T12:47:17.986Z,7.73
2022-09-10T12:49:48.456Z,7.73
2022-09-10T12:52:45.617Z,7.27
2022-09-10T12:55:38.152Z,7.63
2022-09-10T12:58:23.991Z,9.03
2022-09-10T13:01:10.970Z,5.53
2022-09-10T13:03:38.129Z,6.73
2022-09-10T13:06:07.053Z,6.40
2022-09-10T13:08:43.864Z,5.97
2022-09-10T13:11:19.355Z,5.50
2022-09-10T13:13:48.945Z,5.80
2022-09-10T13:16:27.895Z,6.17
2022-09-10T13:19:14.394Z,6.40
2022-09-10T13:21:40.927Z,6.27
2022-09-10T13:24:38.500Z,5.30
2022-09-10T13:27:17.262Z,4.40
2022-09-10T13:29:51.920Z,5.57
2022-09-10T13:32:29.817Z,7.10
2022-09-10T13:35:17.225Z,5.33
2022-09-10T13:37:44.189Z,4.43
2022-09-10T13:40:34.634Z,5.10
2022-09-10T13:43:12.167Z,6.07
2022-09-10T13:45:49.500Z,5.00
2022-09-10T13:48:43.397Z,4.80
2022-09-10T13:51:36.626Z,5.97
2022-09-10T13:54:31.304Z,4.67
2022-09-10T13:57:04.336Z,5.00
2022-09-10T13:59:33.967Z,5.50
2022-09-10T14:02:00.935Z,4.83
2022-09-10T14:04:35.630Z,5.83
2022-09-10T14:07:16.875Z,6.60
2022-09-10T14:09:47.546Z,5.07
2022-09-10T14:12:17.445Z,5.43
2022-09-10T14:14:49.896Z,4.67
2022-09-10T14:17:30.077Z,4.23
2022-09-10T14:20:01.348Z,3.60
2022-09-10T14:22:29.446Z,7.33
2022-09-10T14:24:59.727Z,5.57
2022-09-10T14:27:37.510Z,4.10
2022-09-10T14:30:26.411Z,5.50
2022-09-10T14:32:53.352Z,4.63
2022-09-10T14:35:43.127Z,5.20
2022-09-10T14:38:35.386Z,3.70
2022-09-10T14:41:08.813Z,3.60
2022-09-10T14:43:40.387Z,3.33
2022-09-10T14:46:09.041Z,4.53
2022-09-10T14:48:36.965Z,3.20
2022-09-10T14:51:18.036Z,3.60
2022-09-10T14:53:49.436Z,3.63
2022-09-10T14:56:36.262Z,5.90
2022-09-10T14:59:10.223Z,10.63
2022-09-10T15:01:36.901Z,22.03
2022-09-10T15:04:04.268Z,10.83
2022-09-10T15:06:31.555Z,12.83
2022-09-10T15:08:58.631Z,8.70
2022-09-10T15:11:27.897Z,8.43
2022-09-10T15:13:55.970Z,9.77
2022-09-10T15:16:23.398Z,6.23
2022-09-10T15:18:50.056Z,12.87
2022-09-10T15:21:17.125Z,6.47
2022-09-10T15:23:44.412Z,8.00
2022-09-10T15:26:15.615Z,9.03
2022-09-10T15:28:42.830Z,5.03
2022-09-10T15:31:10.828Z,6.17
2022-09-10T15:33:37.810Z,7.23
2022-09-10T15:36:04.747Z,4.63
2022-09-10T15:38:31.741Z,4.87
2022-09-10T15:41:13.468Z,6.57
2022-09-10T15:43:45.027Z,4.93
2022-09-10T15:46:14.001Z,5.47
2022-09-10T15:48:41.681Z,5.23
2022-09-10T15:51:14.784Z,5.43
2022-09-10T15:53:42.857Z,8.23
2022-09-10T15:56:11.682Z,6.40
2022-09-10T15:58:39.103Z,6.70
2022-09-10T16:01:08.142Z,6.47
2022-09-10T16:03:35.192Z,8.07
2022-09-10T16:06:07.162Z,7.07
2022-09-10T16:08:34.443Z,11.87
2022-09-10T16:11:11.767Z,6.63
2022-09-10T16:13:39.743Z,4.70
2022-09-10T16:16:09.960Z,4.53
2022-09-10T16:18:37.378Z,6.50
2022-09-10T16:21:26.164Z,4.93
2022-09-10T16:23:55.326Z,4.97
2022-09-10T16:26:24.962Z,6.17
2022-09-10T16:28:53.192Z,4.93
2022-09-10T16:31:25.365Z,6.93
2022-09-10T16:33:55.082Z,4.60
2022-09-10T16:36:23.460Z,5.20
2022-09-10T16:38:55.418Z,5.20
2022-09-10T16:41:23.241Z,5.80
2022-09-10T16:43:50.385Z,7.37
2022-09-10T16:46:17.408Z,4.70
2022-09-10T16:48:44.939Z,6.33
2022-09-10T16:51:17.057Z,5.83
2022-09-10T16:53:45.426Z,5.53
2022-09-10T16:56:13.917Z,5.43
2022-09-10T16:58:41.489Z,7.13
2022-09-10T17:01:09.357Z,6.47
2022-09-10T17:03:39.878Z,4.93
2022-09-10T17:06:06.960Z,6.67
2022-09-10T17:08:34.474Z,5.40
2022-09-10T17:11:02.366Z,4.37
2022-09-10T17:13:28.916Z,4.23
2022-09-10T17:16:16.940Z,4.17
2022-09-10T17:18:44.808Z,5.90
2022-09-10T17:21:11.705Z,3.83
2022-09-10T17:23:38.701Z,4.00
2022-09-10T17:26:09.639Z,6.10
2022-09-10T17:28:36.824Z,4.43
2022-09-10T17:31:04.155Z,4.33
2022-09-10T17:33:30.970Z,6.17
2022-09-10T17:36:00.360Z,6.27
2022-09-10T17:38:28.762Z,5.33
2022-09-10T17:41:01.369Z,3.60
2022-09-10T17:43:29.946Z,5.80
2022-09-10T17:45:58.087Z,4.03
2022-09-10T17:48:28.123Z,4.63
2022-09-10T17:50:55.060Z,3.80
2022-09-10T17:53:22.141Z,6.53
2022-09-10T17:55:49.102Z,6.57
2022-09-10T17:58:16.457Z,4.97
2022-09-10T18:00:48.636Z,5.23
2022-09-10T18:03:17.579Z,6.00
2022-09-10T18:05:45.895Z,7.37
2022-09-10T18:08:13.219Z,5.53
2022-09-10T18:10:40.291Z,7.27
2022-09-10T18:13:08.103Z,5.23
2022-09-10T18:15:42.033Z,5.10
2022-09-10T18:18:09.587Z,5.57
2022-09-10T18:20:36.233Z,10.73
2022-09-10T18:23:02.883Z,13.13
2022-09-10T18:25:30.429Z,9.50
2022-09-10T18:27:57.840Z,8.47
2022-09-10T18:30:26.472Z,9.97
2022-09-10T18:32:53.337Z,9.90
2022-09-10T18:35:20.634Z,8.53
2022-09-10T18:37:49.991Z,5.77
2022-09-10T18:40:17.698Z,5.20
2022-09-10T18:42:46.754Z,6.13
2022-09-10T18:45:14.033Z,6.70
2022-09-10T18:47:45.089Z,7.33
2022-09-10T18:50:13.120Z,5.50
2022-09-10T18:52:40.177Z,7.20
2022-09-10T18:55:07.032Z,8.43
2022-09-10T18:57:33.545Z,5.83
2022-09-10T19:00:01.000Z,6.37
2022-09-10T19:02:28.048Z,5.27
2022-09-10T19:05:10.810Z,5.33
2022-09-10T19:07:38.964Z,6.00
2022-09-10T19:10:07.015Z,6.60
2022-09-10T19:12:34.134Z,5.97
2022-09-10T19:15:01.091Z,5.50
2022-09-10T19:17:27.600Z,6.77
2022-09-10T19:19:54.107Z,6.07
2022-09-10T19:22:21.098Z,5.73
2022-09-10T19:24:55.752Z,5.80
2022-09-10T19:27:24.064Z,5.80
2022-09-10T19:29:51.793Z,7.97
2022-09-10T19:32:19.735Z,7.23
2022-09-10T19:34:49.092Z,5.60
2022-09-10T19:37:15.667Z,6.10
2022-09-10T19:39:44.163Z,6.63
2022-09-10T19:42:11.573Z,7.73
2022-09-10T19:44:38.585Z,5.03
2022-09-10T19:47:05.541Z,7.27
2022-09-10T19:49:34.034Z,5.23
2022-09-10T19:52:01.013Z,7.30
2022-09-10T19:54:29.742Z,5.77
2022-09-10T19:56:56.697Z,8.27
2022-09-10T19:59:23.752Z,5.67
2022-09-10T20:01:50.476Z,6.10
2022-09-10T20:04:17.557Z,6.77
2022-09-10T20:06:45.879Z,5.40
2022-09-10T20:09:12.623Z,7.23
2022-09-10T20:11:39.680Z,11.00
2022-09-10T20:14:13.061Z,9.73
2022-09-10T20:16:42.766Z,7.17
2022-09-10T20:19:12.117Z,9.37
2022-09-10T20:21:39.466Z,7.37
2022-09-10T20:24:07.193Z,8.07
2022-09-10T20:26:38.045Z,8.27
2022-09-10T20:29:07.558Z,10.40
2022-09-10T20:31:36.471Z,8.60
2022-09-10T20:34:05.361Z,6.57
2022-09-10T20:36:33.120Z,8.60
2022-09-10T20:39:00.244Z,7.97
2022-09-10T20:41:30.700Z,7.07
2022-09-10T20:43:59.553Z,5.83
2022-09-10T20:46:28.199Z,10.97
2022-09-10T20:49:02.559Z,10.77
2022-09-10T20:51:31.134Z,7.37
2022-09-10T20:53:58.015Z,7.43
2022-09-10T20:56:25.345Z,7.80
2022-09-10T20:58:52.597Z,5.97
2022-09-10T21:01:22.139Z,7.43
2022-09-10T21:03:51.296Z,6.33
2022-09-10T21:06:19.519Z,6.23
2022-09-10T21:08:47.618Z,6.67
2022-09-10T21:11:17.232Z,11.27
2022-09-10T21:13:50.292Z,6.53
2022-09-10T21:16:19.501Z,10.47
2022-09-10T21:18:53.588Z,8.90
2022-09-10T21:21:23.324Z,7.37
2022-09-10T21:23:52.418Z,6.87
2022-09-10T21:26:21.798Z,8.07
2022-09-10T21:28:50.944Z,10.77
2022-09-10T21:31:17.954Z,6.47
2022-09-10T21:33:45.158Z,7.67
2022-09-10T21:36:14.637Z,8.80
2022-09-10T21:38:41.703Z,9.33
2022-09-10T21:41:13.339Z,6.67
2022-09-10T21:43:43.571Z,9.07
2022-09-10T21:46:11.314Z,10.70
2022-09-10T21:48:39.835Z,17.80
2022-09-10T21:51:11.071Z,6.77
2022-09-10T21:53:38.051Z,6.20
2022-09-10T21:56:05.392Z,61.27
2022-09-10T21:58:35.559Z,107.90
2022-09-10T22:01:03.150Z,36.80
2022-09-10T22:03:32.017Z,21.73
2022-09-10T22:06:13.078Z,33.57
2022-09-10T22:08:42.746Z,19.10
2022-09-10T22:11:15.284Z,7.97
2022-09-10T22:13:43.109Z,7.53
2022-09-10T22:16:12.130Z,8.73
2022-09-10T22:18:40.005Z,11.43
2022-09-10T22:21:07.466Z,8.73
2022-09-10T22:23:36.827Z,7.17
2022-09-10T22:26:12.388Z,10.27
2022-09-10T22:28:39.390Z,25.90
2022-09-10T22:31:11.634Z,26.17
2022-09-10T22:33:38.999Z,33.40
2022-09-10T22:36:19.490Z,22.23
2022-09-10T22:38:56.063Z,45.20
2022-09-10T22:41:23.114Z,29.40
2022-09-10T22:43:50.293Z,30.50
2022-09-10T22:46:18.173Z,12.10
2022-09-10T22:48:45.447Z,25.43
2022-09-10T22:51:14.971Z,8.70
2022-09-10T22:53:42.887Z,13.73
2022-09-10T22:56:11.525Z,16.13
2022-09-10T22:58:39.572Z,24.67
2022-09-10T23:01:08.174Z,7.67
2022-09-10T23:03:35.253Z,8.87
2022-09-10T23:06:05.965Z,16.30
2022-09-10T23:08:34.060Z,8.20
2022-09-10T23:11:19.237Z,6.93
2022-09-10T23:13:48.204Z,7.07
2022-09-10T23:16:23.691Z,12.37
2022-09-10T23:18:55.032Z,8.67
2022-09-10T23:21:25.734Z,11.13
2022-09-10T23:24:04.230Z,14.57
2022-09-10T23:26:31.690Z,12.07
2022-09-10T23:29:00.288Z,12.03
2022-09-10T23:31:29.110Z,11.33
2022-09-10T23:33:59.046Z,14.63
2022-09-10T23:36:27.460Z,19.37
2022-09-10T23:38:54.458Z,14.30
2022-09-10T23:41:21.556Z,15.87
2022-09-10T23:43:48.096Z,13.20
2022-09-10T23:46:14.694Z,12.73
2022-09-10T23:48:42.638Z,13.03
2022-09-10T23:51:11.975Z,24.10
2022-09-10T23:53:39.377Z,12.80
2022-09-10T23:56:06.577Z,11.67
2022-09-10T23:58:33.088Z,18.50
